createdAt,value
2017-08-20T00:02:44.919Z,14.20
2017-08-20T00:05:42.452Z,14.10
2017-08-20T00:08:40.060Z,14.10
2017-08-20T00:11:38.479Z,14.20
2017-08-20T00:14:35.853Z,14.10
2017-08-20T00:17:33.429Z,14.00
2017-08-20T00:20:30.846Z,14.00
2017-08-20T00:23:28.496Z,14.00
2017-08-20T00:26:26.112Z,14.00
2017-08-20T00:29:23.720Z,14.10
2017-08-20T00:32:21.380Z,14.10
2017-08-20T00:35:19.949Z,14.10
2017-08-20T00:38:17.443Z,14.10
2017-08-20T00:41:15.071Z,14.10
2017-08-20T00:44:13.507Z,14.00
2017-08-20T00:47:11.137Z,14.00
2017-08-20T00:50:08.986Z,14.10
2017-08-20T00:53:06.841Z,14.10
2017-08-20T00:56:04.491Z,14.10
2017-08-20T00:59:02.036Z,14.20
2017-08-20T01:01:59.570Z,14.10
2017-08-20T01:04:57.311Z,14.10
2017-08-20T01:07:54.752Z,14.10
2017-08-20T01:10:52.419Z,14.00
2017-08-20T01:13:50.040Z,13.90
2017-08-20T01:16:47.574Z,13.80
2017-08-20T01:19:45.263Z,13.80
2017-08-20T01:22:42.683Z,13.70
2017-08-20T01:25:40.204Z,13.70
2017-08-20T01:28:37.663Z,13.80
2017-08-20T01:31:35.315Z,13.80
2017-08-20T01:34:32.791Z,13.80
2017-08-20T01:37:34.371Z,13.80
2017-08-20T01:40:32.034Z,13.80
2017-08-20T01:43:29.511Z,13.80
2017-08-20T01:46:28.027Z,13.80
2017-08-20T01:49:25.672Z,13.80
2017-08-20T01:52:23.306Z,13.80
2017-08-20T01:55:21.955Z,13.80
2017-08-20T01:58:20.607Z,13.70
2017-08-20T02:01:21.189Z,13.70
2017-08-20T02:04:18.653Z,13.60
2017-08-20T02:07:16.114Z,13.60
2017-08-20T02:10:13.560Z,13.60
2017-08-20T02:13:12.041Z,13.70
2017-08-20T02:16:09.505Z,13.70
2017-08-20T02:19:06.925Z,13.70
2017-08-20T02:22:04.493Z,13.70
2017-08-20T02:25:02.008Z,13.70
2017-08-20T02:27:59.714Z,13.70
2017-08-20T02:30:57.352Z,13.70
2017-08-20T02:33:54.922Z,13.70
2017-08-20T02:36:53.550Z,13.70
2017-08-20T02:39:51.941Z,13.70
2017-08-20T02:42:49.585Z,13.70
2017-08-20T02:45:47.191Z,13.70
2017-08-20T02:48:44.602Z,13.70
2017-08-20T02:51:42.099Z,13.70
2017-08-20T02:54:39.821Z,13.70
2017-08-20T02:57:37.300Z,13.70
2017-08-20T03:00:34.945Z,13.70
2017-08-20T03:03:32.603Z,13.70
2017-08-20T03:06:30.224Z,13.70
2017-08-20T03:09:27.806Z,13.60
2017-08-20T03:12:25.391Z,13.60
2017-08-20T03:15:22.989Z,13.50
2017-08-20T03:18:20.470Z,13.50
2017-08-20T03:21:18.156Z,13.50
2017-08-20T03:24:15.870Z,13.40
2017-08-20T03:27:13.667Z,13.40
2017-08-20T03:30:11.286Z,13.30
2017-08-20T03:33:08.867Z,13.30
2017-08-20T03:36:06.501Z,13.30
2017-08-20T03:39:03.904Z,13.20
2017-08-20T03:42:01.409Z,13.10
2017-08-20T03:44:58.911Z,13.00
2017-08-20T03:47:56.548Z,12.90
2017-08-20T03:50:54.148Z,12.70
2017-08-20T03:53:51.819Z,12.60
2017-08-20T03:56:49.258Z,12.50
2017-08-20T03:59:46.673Z,12.40
2017-08-20T04:02:44.047Z,12.30
2017-08-20T04:05:41.619Z,12.30
2017-08-20T04:08:39.107Z,12.30
2017-08-20T04:11:36.615Z,12.20
2017-08-20T04:14:34.207Z,12.10
2017-08-20T04:17:31.774Z,11.90
2017-08-20T04:20:29.490Z,11.90
2017-08-20T04:23:26.930Z,11.90
2017-08-20T04:26:24.505Z,11.80
2017-08-20T04:29:21.956Z,11.80
2017-08-20T04:32:19.491Z,11.80
2017-08-20T04:35:17.069Z,11.90
2017-08-20T04:38:14.765Z,11.90
2017-08-20T04:41:12.394Z,12.00
2017-08-20T04:44:09.998Z,12.10
2017-08-20T04:47:07.508Z,12.20
2017-08-20T04:50:04.910Z,12.40
2017-08-20T04:53:02.494Z,12.60
2017-08-20T04:56:00.131Z,12.90
2017-08-20T04:58:57.568Z,13.20
2017-08-20T05:01:55.138Z,13.30
2017-08-20T05:04:52.823Z,13.50
2017-08-20T05:07:50.182Z,13.60
2017-08-20T05:10:48.839Z,13.70
2017-08-20T05:13:46.515Z,13.70
2017-08-20T05:16:43.988Z,13.70
2017-08-20T05:19:41.514Z,13.60
2017-08-20T05:22:39.187Z,13.50
2017-08-20T05:25:36.859Z,13.40
2017-08-20T05:28:34.238Z,13.30
2017-08-20T05:31:31.799Z,13.30
2017-08-20T05:34:29.172Z,13.30
2017-08-20T05:37:26.689Z,13.40
2017-08-20T05:40:24.220Z,13.30
2017-08-20T05:43:21.706Z,13.20
2017-08-20T05:46:19.163Z,13.20
2017-08-20T05:49:16.943Z,13.20
2017-08-20T05:52:15.512Z,13.20
2017-08-20T05:55:13.047Z,13.20
2017-08-20T05:58:10.559Z,13.30
2017-08-20T06:01:08.280Z,13.30
2017-08-20T06:04:05.943Z,13.40
2017-08-20T06:07:03.508Z,13.40
2017-08-20T06:10:00.873Z,13.50
2017-08-20T06:12:58.540Z,13.50
2017-08-20T06:15:56.295Z,13.70
2017-08-20T06:18:54.870Z,13.80
2017-08-20T06:21:52.436Z,13.90
2017-08-20T06:24:49.947Z,13.90
2017-08-20T06:27:47.503Z,14.00
2017-08-20T06:30:44.943Z,14.00
2017-08-20T06:33:42.370Z,14.20
2017-08-20T06:36:39.826Z,14.20
2017-08-20T06:39:37.143Z,14.30
2017-08-20T06:42:35.820Z,14.20
2017-08-20T06:45:33.228Z,14.10
2017-08-20T06:48:30.831Z,14.10
2017-08-20T06:51:29.359Z,14.10
2017-08-20T06:54:27.132Z,14.10
2017-08-20T06:57:24.654Z,14.00
2017-08-20T07:00:22.211Z,13.90
2017-08-20T07:03:19.595Z,13.90
2017-08-20T07:06:18.039Z,14.00
2017-08-20T07:09:15.475Z,14.00
2017-08-20T07:12:12.896Z,14.00
2017-08-20T07:15:10.253Z,14.10
2017-08-20T07:18:07.971Z,14.30
2017-08-20T07:21:05.322Z,14.30
2017-08-20T07:24:02.786Z,14.50
2017-08-20T07:27:00.154Z,14.50
2017-08-20T07:29:57.790Z,14.60
2017-08-20T07:32:55.338Z,14.70
2017-08-20T07:35:53.851Z,15.10
2017-08-20T07:38:51.300Z,15.10
2017-08-20T07:41:49.035Z,15.40
2017-08-20T07:44:46.546Z,15.80
2017-08-20T07:47:44.123Z,16.10
2017-08-20T07:50:41.758Z,16.40
2017-08-20T07:53:39.300Z,16.60
2017-08-20T07:56:37.998Z,16.80
2017-08-20T07:59:35.678Z,16.90
2017-08-20T08:02:33.091Z,17.10
2017-08-20T08:05:30.644Z,17.30
2017-08-20T08:08:28.136Z,17.40
2017-08-20T08:11:25.707Z,17.60
2017-08-20T08:14:23.314Z,17.80
2017-08-20T08:17:22.006Z,18.10
2017-08-20T08:20:19.470Z,18.00
2017-08-20T08:23:16.886Z,18.10
2017-08-20T08:26:14.495Z,18.30
2017-08-20T08:29:14.091Z,18.30
2017-08-20T08:32:12.591Z,18.40
2017-08-20T08:35:10.250Z,18.30
2017-08-20T08:38:07.926Z,18.50
2017-08-20T08:41:08.455Z,18.60
2017-08-20T08:44:06.163Z,18.70
2017-08-20T08:47:03.474Z,18.80
2017-08-20T08:50:00.950Z,18.90
2017-08-20T08:52:58.375Z,18.90
2017-08-20T08:55:55.832Z,18.90
2017-08-20T08:58:53.450Z,18.90
2017-08-20T09:01:50.731Z,19.00
2017-08-20T09:04:48.270Z,19.20
2017-08-20T09:07:45.822Z,19.20
2017-08-20T09:10:43.206Z,19.10
2017-08-20T09:13:40.876Z,19.10
2017-08-20T09:16:38.422Z,19.30
2017-08-20T09:19:35.843Z,19.40
2017-08-20T09:22:33.386Z,19.40
2017-08-20T09:25:30.983Z,19.50
2017-08-20T09:28:28.354Z,19.40
2017-08-20T09:31:25.859Z,19.30
2017-08-20T09:34:23.187Z,19.20
2017-08-20T09:37:20.624Z,19.50
2017-08-20T09:40:18.271Z,19.80
2017-08-20T09:43:15.624Z,20.20
2017-08-20T09:46:13.044Z,20.60
2017-08-20T09:49:10.524Z,20.80
2017-08-20T09:52:08.124Z,20.80
2017-08-20T09:55:05.733Z,20.80
2017-08-20T09:58:04.353Z,21.20
2017-08-20T10:01:01.938Z,21.20
2017-08-20T10:04:00.412Z,21.10
2017-08-20T10:06:58.076Z,21.10
2017-08-20T10:09:55.567Z,20.40
2017-08-20T10:12:52.931Z,20.10
2017-08-20T10:16:00.471Z,20.20
2017-08-20T10:18:58.014Z,20.30
2017-08-20T10:21:55.555Z,20.10
2017-08-20T10:24:53.033Z,19.80
2017-08-20T10:27:50.647Z,19.80
2017-08-20T10:30:54.061Z,20.00
2017-08-20T10:33:51.507Z,20.40
2017-08-20T10:36:51.033Z,20.40
2017-08-20T10:39:49.558Z,20.60
2017-08-20T10:42:46.972Z,21.10
2017-08-20T10:45:45.465Z,21.30
2017-08-20T10:48:51.828Z,21.00
2017-08-20T10:51:50.424Z,20.60
2017-08-20T10:54:48.166Z,20.60
2017-08-20T10:57:46.654Z,21.00
2017-08-20T11:00:45.326Z,21.40
2017-08-20T11:03:56.944Z,20.80
2017-08-20T11:06:55.343Z,20.80
2017-08-20T11:09:53.845Z,21.00
2017-08-20T11:12:51.382Z,20.70
2017-08-20T11:15:54.887Z,20.50
2017-08-20T11:18:52.494Z,20.50
2017-08-20T11:21:49.969Z,20.90
2017-08-20T11:24:47.342Z,21.20
2017-08-20T11:27:45.835Z,21.30
2017-08-20T11:30:43.328Z,21.30
2017-08-20T11:33:40.867Z,21.40
2017-08-20T11:36:38.309Z,21.70
2017-08-20T11:39:35.903Z,21.80
2017-08-20T11:42:33.568Z,21.90
2017-08-20T11:45:31.140Z,21.90
2017-08-20T11:48:28.663Z,22.10
2017-08-20T11:51:27.186Z,21.90
2017-08-20T11:54:24.743Z,21.70
2017-08-20T11:57:22.267Z,21.80
2017-08-20T12:00:19.576Z,21.90
2017-08-20T12:03:16.983Z,21.90
2017-08-20T12:06:14.363Z,21.80
2017-08-20T12:09:13.115Z,21.80
2017-08-20T12:12:10.519Z,21.80
2017-08-20T12:15:08.023Z,21.90
2017-08-20T12:18:06.757Z,21.90
2017-08-20T12:21:04.167Z,21.90
2017-08-20T12:24:01.746Z,21.70
2017-08-20T12:26:59.183Z,21.50
2017-08-20T12:29:56.702Z,21.30
2017-08-20T12:32:54.110Z,21.40
2017-08-20T12:35:52.715Z,21.30
2017-08-20T12:38:50.293Z,21.30
2017-08-20T12:41:47.749Z,21.20
2017-08-20T12:44:45.162Z,21.40
2017-08-20T12:47:42.628Z,21.40
2017-08-20T12:50:40.255Z,20.90
2017-08-20T12:53:37.658Z,20.60
2017-08-20T12:56:35.386Z,20.60
2017-08-20T12:59:33.891Z,21.10
2017-08-20T13:02:31.357Z,21.10
2017-08-20T13:05:28.975Z,21.40
2017-08-20T13:08:26.426Z,21.50
2017-08-20T13:11:23.922Z,21.20
2017-08-20T13:14:35.402Z,20.80
2017-08-20T13:17:32.897Z,20.80
2017-08-20T13:20:38.678Z,21.10
2017-08-20T13:23:42.267Z,21.30
2017-08-20T13:26:39.746Z,21.20
2017-08-20T13:29:39.249Z,21.30
2017-08-20T13:32:43.784Z,21.30
2017-08-20T13:35:41.180Z,21.50
2017-08-20T13:38:38.715Z,21.60
2017-08-20T13:41:43.305Z,21.60
2017-08-20T13:44:40.827Z,21.60
2017-08-20T13:47:38.234Z,21.70
2017-08-20T13:50:35.795Z,22.00
2017-08-20T13:53:33.237Z,21.50
2017-08-20T13:56:30.664Z,21.10
2017-08-20T13:59:28.309Z,20.90
2017-08-20T14:02:25.714Z,21.20
2017-08-20T14:05:32.241Z,21.30
2017-08-20T14:08:29.832Z,21.40
2017-08-20T14:11:31.372Z,21.50
2017-08-20T14:14:29.014Z,21.50
2017-08-20T14:17:26.474Z,21.60
2017-08-20T14:20:23.891Z,21.60
2017-08-20T14:23:21.509Z,21.50
2017-08-20T14:26:18.962Z,21.40
2017-08-20T14:29:19.496Z,21.50
2017-08-20T14:32:16.919Z,21.30
2017-08-20T14:35:21.416Z,21.20
2017-08-20T14:38:21.978Z,21.30
2017-08-20T14:41:23.951Z,21.60
2017-08-20T14:44:33.732Z,21.90
2017-08-20T14:47:35.440Z,22.00
2017-08-20T14:50:32.964Z,21.90
2017-08-20T14:53:37.687Z,21.80
2017-08-20T14:56:35.034Z,21.80
2017-08-20T14:59:33.784Z,21.70
2017-08-20T15:02:33.328Z,21.30
2017-08-20T15:05:30.914Z,21.30
2017-08-20T15:08:29.649Z,21.20
2017-08-20T15:11:32.235Z,21.20
2017-08-20T15:14:29.750Z,21.40
2017-08-20T15:17:27.239Z,21.20
2017-08-20T15:20:24.923Z,21.30
2017-08-20T15:23:22.511Z,21.40
2017-08-20T15:26:20.963Z,21.10
2017-08-20T15:29:20.575Z,21.10
2017-08-20T15:32:18.483Z,21.00
2017-08-20T15:35:20.094Z,21.00
2017-08-20T15:38:30.556Z,20.80
2017-08-20T15:41:28.053Z,20.80
2017-08-20T15:44:26.435Z,20.60
2017-08-20T15:47:25.058Z,20.40
2017-08-20T15:50:23.522Z,20.50
2017-08-20T15:53:21.043Z,20.60
2017-08-20T15:56:35.744Z,20.70
2017-08-20T15:59:39.389Z,20.70
2017-08-20T16:02:36.859Z,20.90
2017-08-20T16:05:36.467Z,20.90
2017-08-20T16:08:35.123Z,20.80
2017-08-20T16:11:41.807Z,20.70
2017-08-20T16:14:45.346Z,20.90
2017-08-20T16:17:45.944Z,20.90
2017-08-20T16:20:43.494Z,21.10
2017-08-20T16:23:47.206Z,21.00
2017-08-20T16:26:44.679Z,20.80
2017-08-20T16:29:45.371Z,20.50
2017-08-20T16:32:43.046Z,20.40
2017-08-20T16:35:40.690Z,20.40
2017-08-20T16:38:38.107Z,20.40
2017-08-20T16:41:35.755Z,20.30
2017-08-20T16:44:34.309Z,19.90
2017-08-20T16:47:31.783Z,19.70
2017-08-20T16:50:29.512Z,19.80
2017-08-20T16:53:28.151Z,20.10
2017-08-20T16:56:25.714Z,20.10
2017-08-20T16:59:23.382Z,20.10
2017-08-20T17:02:21.423Z,20.10
2017-08-20T17:05:19.010Z,20.00
2017-08-20T17:08:16.533Z,19.90
2017-08-20T17:11:14.052Z,19.90
2017-08-20T17:14:11.431Z,20.00
2017-08-20T17:17:13.913Z,19.80
2017-08-20T17:20:12.622Z,19.70
2017-08-20T17:23:11.209Z,19.70
2017-08-20T17:26:08.679Z,19.60
2017-08-20T17:29:06.264Z,19.60
2017-08-20T17:32:03.614Z,19.60
2017-08-20T17:35:01.136Z,19.50
2017-08-20T17:37:58.611Z,19.50
2017-08-20T17:40:58.133Z,19.40
2017-08-20T17:43:55.710Z,19.40
2017-08-20T17:46:53.329Z,19.30
2017-08-20T17:49:50.756Z,19.20
2017-08-20T17:52:48.449Z,18.90
2017-08-20T17:55:46.146Z,18.60
2017-08-20T17:58:44.468Z,18.00
2017-08-20T18:01:41.920Z,18.00
2017-08-20T18:04:39.343Z,17.80
2017-08-20T18:07:36.968Z,17.70
2017-08-20T18:10:34.506Z,17.40
2017-08-20T18:13:31.915Z,17.30
2017-08-20T18:16:29.622Z,17.00
2017-08-20T18:19:27.147Z,16.80
2017-08-20T18:22:24.673Z,16.60
2017-08-20T18:25:22.143Z,16.50
2017-08-20T18:28:19.740Z,16.40
2017-08-20T18:31:17.225Z,16.20
2017-08-20T18:34:14.882Z,15.90
2017-08-20T18:37:12.293Z,15.60
2017-08-20T18:40:09.975Z,15.20
2017-08-20T18:43:07.458Z,14.90
2017-08-20T18:46:05.881Z,14.80
2017-08-20T18:49:03.510Z,14.60
2017-08-20T18:52:00.968Z,14.50
2017-08-20T18:54:58.615Z,14.40
2017-08-20T18:57:59.034Z,14.50
2017-08-20T19:00:56.695Z,14.70
2017-08-20T19:03:56.305Z,14.90
2017-08-20T19:06:53.801Z,14.90
2017-08-20T19:09:51.329Z,14.90
2017-08-20T19:12:48.873Z,14.70
2017-08-20T19:15:46.622Z,14.40
2017-08-20T19:18:44.260Z,14.20
2017-08-20T19:21:41.801Z,14.00
2017-08-20T19:24:39.395Z,13.60
2017-08-20T19:27:37.114Z,13.30
2017-08-20T19:30:34.563Z,13.10
2017-08-20T19:33:32.096Z,12.90
2017-08-20T19:36:29.506Z,12.80
2017-08-20T19:39:26.869Z,12.70
2017-08-20T19:42:24.431Z,12.60
2017-08-20T19:45:21.919Z,12.60
2017-08-20T19:48:19.306Z,12.50
2017-08-20T19:51:16.946Z,12.40
2017-08-20T19:54:14.323Z,12.40
2017-08-20T19:57:12.121Z,12.30
2017-08-20T20:00:09.608Z,12.30
2017-08-20T20:03:07.260Z,12.20
2017-08-20T20:06:05.835Z,12.00
2017-08-20T20:09:03.434Z,11.90
2017-08-20T20:12:01.024Z,11.80
2017-08-20T20:14:58.836Z,11.80
2017-08-20T20:17:56.240Z,11.80
2017-08-20T20:20:54.871Z,12.00
2017-08-20T20:23:56.466Z,12.20
2017-08-20T20:26:53.909Z,12.30
2017-08-20T20:29:51.420Z,11.90
2017-08-20T20:32:56.172Z,11.70
2017-08-20T20:35:53.854Z,11.50
2017-08-20T20:38:51.292Z,11.50
2017-08-20T20:41:48.922Z,11.50
2017-08-20T20:44:46.432Z,11.60
2017-08-20T20:47:44.124Z,11.70
2017-08-20T20:50:41.583Z,11.70
2017-08-20T20:53:39.054Z,11.70
2017-08-20T20:56:36.609Z,11.80
2017-08-20T20:59:34.243Z,12.00
2017-08-20T21:02:31.848Z,12.10
2017-08-20T21:05:33.356Z,12.00
2017-08-20T21:08:31.789Z,12.00
2017-08-20T21:11:31.312Z,12.00
2017-08-20T21:14:47.028Z,12.00
2017-08-20T21:17:44.451Z,11.90
2017-08-20T21:20:41.947Z,11.70
2017-08-20T21:23:39.298Z,11.60
2017-08-20T21:26:36.904Z,11.50
2017-08-20T21:29:34.475Z,11.60
2017-08-20T21:32:32.107Z,11.50
2017-08-20T21:35:29.507Z,11.30
2017-08-20T21:38:28.261Z,11.10
2017-08-20T21:41:28.736Z,11.00
2017-08-20T21:44:26.190Z,11.10
2017-08-20T21:47:23.642Z,11.10
2017-08-20T21:50:21.197Z,11.30
2017-08-20T21:53:18.650Z,11.30
2017-08-20T21:56:16.191Z,11.30
2017-08-20T21:59:13.815Z,11.00
2017-08-20T22:02:11.202Z,10.80
2017-08-20T22:05:09.807Z,10.80
2017-08-20T22:08:07.161Z,10.80
2017-08-20T22:11:04.630Z,10.80
2017-08-20T22:14:02.239Z,10.80
2017-08-20T22:16:59.798Z,11.00
2017-08-20T22:19:57.394Z,11.10
2017-08-20T22:22:56.961Z,10.80
2017-08-20T22:25:54.572Z,10.80
2017-08-20T22:28:52.064Z,10.70
2017-08-20T22:31:49.630Z,10.70
2017-08-20T22:34:47.307Z,10.80
2017-08-20T22:37:44.819Z,10.80
2017-08-20T22:40:42.525Z,10.80
2017-08-20T22:43:40.332Z,10.80
2017-08-20T22:46:38.017Z,10.80
2017-08-20T22:49:35.539Z,10.90
2017-08-20T22:52:32.934Z,10.90
2017-08-20T22:55:30.609Z,10.90
2017-08-20T22:58:28.195Z,11.00
2017-08-20T23:01:25.720Z,11.10
2017-08-20T23:04:23.169Z,11.10
2017-08-20T23:07:20.926Z,11.00
2017-08-20T23:10:18.575Z,10.80
2017-08-20T23:13:16.260Z,10.80
2017-08-20T23:16:13.675Z,10.80
2017-08-20T23:19:12.210Z,10.70
2017-08-20T23:22:09.555Z,10.70
2017-08-20T23:25:07.057Z,10.70
2017-08-20T23:28:04.534Z,10.60
2017-08-20T23:31:02.119Z,10.50
2017-08-20T23:33:59.594Z,10.30
2017-08-20T23:36:57.147Z,10.20
2017-08-20T23:39:54.587Z,10.20
2017-08-20T23:42:52.082Z,10.10
2017-08-20T23:45:49.616Z,10.00
2017-08-20T23:48:47.184Z,9.90
2017-08-20T23:51:44.769Z,9.90
2017-08-20T23:54:42.086Z,9.90
2017-08-20T23:57:39.418Z,10.10
